sensor_id;sensor_type;location;lat;lon;timestamp;temperature;humidity
66936;DHT22;53847;51.984;5.896;2022-08-18T00:01:14;21.10;83.80
66936;DHT22;53847;51.984;5.896;2022-08-18T00:03:44;20.90;83.80
66936;DHT22;53847;51.984;5.896;2022-08-18T00:06:10;21.20;84.00
66936;DHT22;53847;51.984;5.896;2022-08-18T00:08:36;20.90;83.90
66936;DHT22;53847;51.984;5.896;2022-08-18T00:11:03;20.90;83.90
66936;DHT22;53847;51.984;5.896;2022-08-18T00:13:29;21.10;84.00
66936;DHT22;53847;51.984;5.896;2022-08-18T00:15:56;20.90;83.90
66936;DHT22;53847;51.984;5.896;2022-08-18T00:18:22;20.80;84.10
66936;DHT22;53847;51.984;5.896;2022-08-18T00:20:48;20.80;84.20
66936;DHT22;53847;51.984;5.896;2022-08-18T00:23:14;20.90;84.20
66936;DHT22;53847;51.984;5.896;2022-08-18T00:25:41;21.20;84.30
66936;DHT22;53847;51.984;5.896;2022-08-18T00:28:07;20.90;84.00
66936;DHT22;53847;51.984;5.896;2022-08-18T00:30:33;21.30;84.10
66936;DHT22;53847;51.984;5.896;2022-08-18T00:33:00;21.30;84.10
66936;DHT22;53847;51.984;5.896;2022-08-18T00:35:37;21.10;83.90
66936;DHT22;53847;51.984;5.896;2022-08-18T00:38:05;21.00;83.80
66936;DHT22;53847;51.984;5.896;2022-08-18T00:40:38;20.90;84.10
66936;DHT22;53847;51.984;5.896;2022-08-18T00:43:06;21.00;84.10
66936;DHT22;53847;51.984;5.896;2022-08-18T00:45:38;20.90;83.90
66936;DHT22;53847;51.984;5.896;2022-08-18T00:48:05;20.90;83.80
66936;DHT22;53847;51.984;5.896;2022-08-18T00:53:12;20.70;84.20
66936;DHT22;53847;51.984;5.896;2022-08-18T00:55:41;20.90;84.30
66936;DHT22;53847;51.984;5.896;2022-08-18T00:58:12;20.80;84.10
66936;DHT22;53847;51.984;5.896;2022-08-18T01:00:40;20.80;84.20
66936;DHT22;53847;51.984;5.896;2022-08-18T01:03:10;20.70;84.10
66936;DHT22;53847;51.984;5.896;2022-08-18T01:05:42;21.20;84.50
66936;DHT22;53847;51.984;5.896;2022-08-18T01:08:12;20.40;84.10
66936;DHT22;53847;51.984;5.896;2022-08-18T01:10:39;20.80;84.50
66936;DHT22;53847;51.984;5.896;2022-08-18T01:13:06;20.80;84.40
66936;DHT22;53847;51.984;5.896;2022-08-18T01:15:33;20.90;84.30
66936;DHT22;53847;51.984;5.896;2022-08-18T01:18:04;20.70;84.20
66936;DHT22;53847;51.984;5.896;2022-08-18T01:20:40;21.10;84.40
66936;DHT22;53847;51.984;5.896;2022-08-18T01:23:16;20.70;83.90
66936;DHT22;53847;51.984;5.896;2022-08-18T01:25:43;20.80;83.80
66936;DHT22;53847;51.984;5.896;2022-08-18T01:28:10;20.90;83.80
66936;DHT22;53847;51.984;5.896;2022-08-18T01:30:48;21.30;83.80
66936;DHT22;53847;51.984;5.896;2022-08-18T01:33:16;21.50;83.90
66936;DHT22;53847;51.984;5.896;2022-08-18T01:35:46;20.90;83.40
66936;DHT22;53847;51.984;5.896;2022-08-18T01:38:12;21.00;83.50
66936;DHT22;53847;51.984;5.896;2022-08-18T01:40:38;21.10;83.40
66936;DHT22;53847;51.984;5.896;2022-08-18T01:43:04;21.40;83.40
66936;DHT22;53847;51.984;5.896;2022-08-18T01:45:30;20.80;83.00
66936;DHT22;53847;51.984;5.896;2022-08-18T01:47:56;20.90;83.10
66936;DHT22;53847;51.984;5.896;2022-08-18T01:50:22;20.70;82.90
66936;DHT22;53847;51.984;5.896;2022-08-18T01:52:49;20.80;82.90
66936;DHT22;53847;51.984;5.896;2022-08-18T01:55:15;20.80;82.80
66936;DHT22;53847;51.984;5.896;2022-08-18T01:57:41;20.50;82.60
66936;DHT22;53847;51.984;5.896;2022-08-18T02:00:12;20.80;82.80
66936;DHT22;53847;51.984;5.896;2022-08-18T02:02:40;20.70;82.70
66936;DHT22;53847;51.984;5.896;2022-08-18T02:05:17;20.80;82.80
66936;DHT22;53847;51.984;5.896;2022-08-18T02:07:44;20.50;82.70
66936;DHT22;53847;51.984;5.896;2022-08-18T02:10:11;20.80;82.80
66936;DHT22;53847;51.984;5.896;2022-08-18T02:12:38;20.70;82.70
66936;DHT22;53847;51.984;5.896;2022-08-18T02:15:05;20.40;82.50
66936;DHT22;53847;51.984;5.896;2022-08-18T02:17:37;20.50;82.60
66936;DHT22;53847;51.984;5.896;2022-08-18T02:20:04;20.70;82.60
66936;DHT22;53847;51.984;5.896;2022-08-18T02:22:30;20.70;82.40
66936;DHT22;53847;51.984;5.896;2022-08-18T02:24:57;20.40;82.20
66936;DHT22;53847;51.984;5.896;2022-08-18T02:27:23;20.40;82.50
66936;DHT22;53847;51.984;5.896;2022-08-18T02:29:49;20.50;82.60
66936;DHT22;53847;51.984;5.896;2022-08-18T02:32:15;20.50;82.70
66936;DHT22;53847;51.984;5.896;2022-08-18T02:34:41;20.80;82.80
66936;DHT22;53847;51.984;5.896;2022-08-18T02:37:07;20.50;82.40
66936;DHT22;53847;51.984;5.896;2022-08-18T02:39:35;20.60;82.40
66936;DHT22;53847;51.984;5.896;2022-08-18T02:42:05;20.30;82.30
66936;DHT22;53847;51.984;5.896;2022-08-18T02:44:31;20.40;82.30
66936;DHT22;53847;51.984;5.896;2022-08-18T02:46:58;20.40;82.30
66936;DHT22;53847;51.984;5.896;2022-08-18T02:49:24;20.50;82.30
66936;DHT22;53847;51.984;5.896;2022-08-18T02:51:51;20.20;82.00
66936;DHT22;53847;51.984;5.896;2022-08-18T02:54:19;20.50;82.20
66936;DHT22;53847;51.984;5.896;2022-08-18T02:56:46;20.30;82.10
66936;DHT22;53847;51.984;5.896;2022-08-18T02:59:24;20.50;82.30
66936;DHT22;53847;51.984;5.896;2022-08-18T03:01:53;20.20;82.20
66936;DHT22;53847;51.984;5.896;2022-08-18T03:04:24;20.50;82.50
66936;DHT22;53847;51.984;5.896;2022-08-18T03:06:52;20.50;82.50
66936;DHT22;53847;51.984;5.896;2022-08-18T03:09:18;20.50;82.50
66936;DHT22;53847;51.984;5.896;2022-08-18T03:11:45;20.30;82.40
66936;DHT22;53847;51.984;5.896;2022-08-18T03:14:11;20.50;82.60
66936;DHT22;53847;51.984;5.896;2022-08-18T03:16:40;20.40;82.60
66936;DHT22;53847;51.984;5.896;2022-08-18T03:19:06;20.50;82.70
66936;DHT22;53847;51.984;5.896;2022-08-18T03:21:33;20.50;82.80
66936;DHT22;53847;51.984;5.896;2022-08-18T03:23:59;20.70;83.00
66936;DHT22;53847;51.984;5.896;2022-08-18T03:26:26;20.80;83.10
66936;DHT22;53847;51.984;5.896;2022-08-18T03:28:53;20.20;82.90
66936;DHT22;53847;51.984;5.896;2022-08-18T03:31:21;20.20;83.10
66936;DHT22;53847;51.984;5.896;2022-08-18T03:33:48;20.40;83.10
66936;DHT22;53847;51.984;5.896;2022-08-18T03:36:17;20.40;83.00
66936;DHT22;53847;51.984;5.896;2022-08-18T03:38:45;20.40;83.00
66936;DHT22;53847;51.984;5.896;2022-08-18T03:41:12;20.60;83.10
66936;DHT22;53847;51.984;5.896;2022-08-18T03:43:39;20.40;82.90
66936;DHT22;53847;51.984;5.896;2022-08-18T03:46:08;20.50;82.80
66936;DHT22;53847;51.984;5.896;2022-08-18T03:48:39;20.60;82.70
66936;DHT22;53847;51.984;5.896;2022-08-18T03:51:08;20.50;83.10
66936;DHT22;53847;51.984;5.896;2022-08-18T03:53:36;20.50;82.40
66936;DHT22;53847;51.984;5.896;2022-08-18T03:56:09;20.50;82.40
66936;DHT22;53847;51.984;5.896;2022-08-18T03:58:36;20.60;82.50
66936;DHT22;53847;51.984;5.896;2022-08-18T04:01:02;20.50;82.30
66936;DHT22;53847;51.984;5.896;2022-08-18T04:03:28;21.00;82.50
66936;DHT22;53847;51.984;5.896;2022-08-18T04:05:54;20.60;82.40
66936;DHT22;53847;51.984;5.896;2022-08-18T04:08:21;20.30;82.20
66936;DHT22;53847;51.984;5.896;2022-08-18T04:10:47;20.70;82.40
66936;DHT22;53847;51.984;5.896;2022-08-18T04:13:13;20.40;82.20
66936;DHT22;53847;51.984;5.896;2022-08-18T04:15:39;20.60;82.30
66936;DHT22;53847;51.984;5.896;2022-08-18T04:18:05;20.60;82.30
66936;DHT22;53847;51.984;5.896;2022-08-18T04:20:31;20.50;82.20
66936;DHT22;53847;51.984;5.896;2022-08-18T04:22:57;20.50;82.10
66936;DHT22;53847;51.984;5.896;2022-08-18T04:25:24;20.50;82.10
66936;DHT22;53847;51.984;5.896;2022-08-18T04:27:50;20.50;82.00
66936;DHT22;53847;51.984;5.896;2022-08-18T04:30:16;21.10;82.40
66936;DHT22;53847;51.984;5.896;2022-08-18T04:32:42;20.90;82.20
66936;DHT22;53847;51.984;5.896;2022-08-18T04:35:08;20.30;81.90
66936;DHT22;53847;51.984;5.896;2022-08-18T04:37:37;20.60;82.10
66936;DHT22;53847;51.984;5.896;2022-08-18T04:40:04;20.20;81.90
66936;DHT22;53847;51.984;5.896;2022-08-18T04:42:30;20.70;82.30
66936;DHT22;53847;51.984;5.896;2022-08-18T04:44:56;20.70;82.40
66936;DHT22;53847;51.984;5.896;2022-08-18T04:47:22;20.20;82.30
66936;DHT22;53847;51.984;5.896;2022-08-18T04:49:48;20.50;82.60
66936;DHT22;53847;51.984;5.896;2022-08-18T04:52:14;20.50;82.60
66936;DHT22;53847;51.984;5.896;2022-08-18T04:54:40;20.50;83.30
66936;DHT22;53847;51.984;5.896;2022-08-18T04:57:08;20.50;82.70
66936;DHT22;53847;51.984;5.896;2022-08-18T04:59:36;20.50;82.70
66936;DHT22;53847;51.984;5.896;2022-08-18T05:02:03;20.50;82.70
66936;DHT22;53847;51.984;5.896;2022-08-18T05:04:29;20.60;82.70
66936;DHT22;53847;51.984;5.896;2022-08-18T05:06:55;20.50;82.70
66936;DHT22;53847;51.984;5.896;2022-08-18T05:09:24;20.30;82.50
66936;DHT22;53847;51.984;5.896;2022-08-18T05:11:50;20.90;83.10
66936;DHT22;53847;51.984;5.896;2022-08-18T05:14:17;20.50;82.70
66936;DHT22;53847;51.984;5.896;2022-08-18T05:16:44;20.70;82.90
66936;DHT22;53847;51.984;5.896;2022-08-18T05:19:10;20.30;82.60
66936;DHT22;53847;51.984;5.896;2022-08-18T05:21:37;20.50;82.70
66936;DHT22;53847;51.984;5.896;2022-08-18T05:24:04;20.80;82.90
66936;DHT22;53847;51.984;5.896;2022-08-18T05:26:30;20.50;82.80
66936;DHT22;53847;51.984;5.896;2022-08-18T05:28:57;20.30;82.80
66936;DHT22;53847;51.984;5.896;2022-08-18T05:31:25;20.50;83.10
66936;DHT22;53847;51.984;5.896;2022-08-18T05:33:52;20.50;83.10
66936;DHT22;53847;51.984;5.896;2022-08-18T05:42:10;20.50;83.20
66936;DHT22;53847;51.984;5.896;2022-08-18T05:44:46;20.50;83.30
66936;DHT22;53847;51.984;5.896;2022-08-18T05:47:23;20.50;83.60
66936;DHT22;53847;51.984;5.896;2022-08-18T05:49:49;20.30;83.70
66936;DHT22;53847;51.984;5.896;2022-08-18T05:54:49;20.60;84.00
66936;DHT22;53847;51.984;5.896;2022-08-18T05:57:18;20.70;83.90
66936;DHT22;53847;51.984;5.896;2022-08-18T05:59:47;20.70;83.80
66936;DHT22;53847;51.984;5.896;2022-08-18T06:05:20;20.70;83.70
66936;DHT22;53847;51.984;5.896;2022-08-18T06:08:10;20.80;83.80
66936;DHT22;53847;51.984;5.896;2022-08-18T06:10:36;20.70;83.80
66936;DHT22;53847;51.984;5.896;2022-08-18T06:13:03;20.80;83.90
66936;DHT22;53847;51.984;5.896;2022-08-18T06:35:26;21.30;84.30
66936;DHT22;53847;51.984;5.896;2022-08-18T06:38:06;21.30;84.40
66936;DHT22;53847;51.984;5.896;2022-08-18T06:40:34;21.40;84.70
66936;DHT22;53847;51.984;5.896;2022-08-18T06:43:00;21.60;84.60
66936;DHT22;53847;51.984;5.896;2022-08-18T06:45:35;21.60;84.40
66936;DHT22;53847;51.984;5.896;2022-08-18T06:48:19;21.60;84.50
66936;DHT22;53847;51.984;5.896;2022-08-18T06:51:00;22.00;84.40
66936;DHT22;53847;51.984;5.896;2022-08-18T06:53:50;22.00;83.90
66936;DHT22;53847;51.984;5.896;2022-08-18T06:58:49;22.50;84.70
66936;DHT22;53847;51.984;5.896;2022-08-18T07:01:16;22.70;85.30
66936;DHT22;53847;51.984;5.896;2022-08-18T07:03:52;23.00;84.60
66936;DHT22;53847;51.984;5.896;2022-08-18T07:08:45;23.40;84.60
66936;DHT22;53847;51.984;5.896;2022-08-18T07:11:31;23.80;84.10
66936;DHT22;53847;51.984;5.896;2022-08-18T07:14:13;24.00;82.10
66936;DHT22;53847;51.984;5.896;2022-08-18T07:16:40;24.00;80.00
66936;DHT22;53847;51.984;5.896;2022-08-18T07:19:15;24.00;79.10
66936;DHT22;53847;51.984;5.896;2022-08-18T07:21:42;24.20;79.40
66936;DHT22;53847;51.984;5.896;2022-08-18T07:27:01;24.10;77.80
66936;DHT22;53847;51.984;5.896;2022-08-18T07:29:30;24.40;77.70
66936;DHT22;53847;51.984;5.896;2022-08-18T07:32:00;24.30;78.70
66936;DHT22;53847;51.984;5.896;2022-08-18T07:34:34;24.20;79.10
66936;DHT22;53847;51.984;5.896;2022-08-18T07:37:08;24.90;78.40
66936;DHT22;53847;51.984;5.896;2022-08-18T07:39:55;24.70;77.70
66936;DHT22;53847;51.984;5.896;2022-08-18T07:42:46;24.80;76.40
66936;DHT22;53847;51.984;5.896;2022-08-18T07:48:14;24.80;75.70
66936;DHT22;53847;51.984;5.896;2022-08-18T07:51:58;24.70;75.50
66936;DHT22;53847;51.984;5.896;2022-08-18T07:54:01;24.90;75.60
66936;DHT22;53847;51.984;5.896;2022-08-18T07:56:39;24.50;76.30
66936;DHT22;53847;51.984;5.896;2022-08-18T07:59:18;24.80;76.70
66936;DHT22;53847;51.984;5.896;2022-08-18T08:01:59;25.50;75.80
66936;DHT22;53847;51.984;5.896;2022-08-18T08:04:53;25.60;74.00
66936;DHT22;53847;51.984;5.896;2022-08-18T08:07:55;25.70;73.50
66936;DHT22;53847;51.984;5.896;2022-08-18T08:13:24;26.50;71.90
66936;DHT22;53847;51.984;5.896;2022-08-18T08:16:06;26.30;69.30
66936;DHT22;53847;51.984;5.896;2022-08-18T08:18:38;26.40;69.00
66936;DHT22;53847;51.984;5.896;2022-08-18T08:21:29;26.30;67.70
66936;DHT22;53847;51.984;5.896;2022-08-18T08:24:17;26.20;66.70
66936;DHT22;53847;51.984;5.896;2022-08-18T08:26:59;25.90;65.90
66936;DHT22;53847;51.984;5.896;2022-08-18T08:30:03;25.70;65.90
66936;DHT22;53847;51.984;5.896;2022-08-18T08:35:22;25.30;66.40
66936;DHT22;53847;51.984;5.896;2022-08-18T08:37:54;25.30;67.00
66936;DHT22;53847;51.984;5.896;2022-08-18T08:40:27;25.00;67.10
66936;DHT22;53847;51.984;5.896;2022-08-18T08:43:05;25.30;67.40
66936;DHT22;53847;51.984;5.896;2022-08-18T08:45:37;25.00;67.10
66936;DHT22;53847;51.984;5.896;2022-08-18T08:48:08;25.30;67.10
66936;DHT22;53847;51.984;5.896;2022-08-18T08:51:23;25.20;66.40
66936;DHT22;53847;51.984;5.896;2022-08-18T08:53:51;25.20;66.70
66936;DHT22;53847;51.984;5.896;2022-08-18T08:56:30;25.20;66.80
66936;DHT22;53847;51.984;5.896;2022-08-18T08:59:02;25.40;66.70
66936;DHT22;53847;51.984;5.896;2022-08-18T09:04:27;24.70;66.50
66936;DHT22;53847;51.984;5.896;2022-08-18T09:10:06;25.20;67.10
66936;DHT22;53847;51.984;5.896;2022-08-18T09:16:03;24.90;67.40
66936;DHT22;53847;51.984;5.896;2022-08-18T09:18:33;24.80;67.40
66936;DHT22;53847;51.984;5.896;2022-08-18T09:40:15;25.10;65.40
66936;DHT22;53847;51.984;5.896;2022-08-18T09:42:55;25.50;65.80
66936;DHT22;53847;51.984;5.896;2022-08-18T09:50:35;25.40;65.10
66936;DHT22;53847;51.984;5.896;2022-08-18T09:53:51;25.00;64.20
66936;DHT22;53847;51.984;5.896;2022-08-18T09:56:03;25.30;64.30
66936;DHT22;53847;51.984;5.896;2022-08-18T09:58:57;25.30;64.20
66936;DHT22;53847;51.984;5.896;2022-08-18T10:01:31;25.30;64.50
66936;DHT22;53847;51.984;5.896;2022-08-18T10:06:48;25.40;64.50
66936;DHT22;53847;51.984;5.896;2022-08-18T10:11:57;25.40;64.20
66936;DHT22;53847;51.984;5.896;2022-08-18T10:17:51;25.70;63.60
66936;DHT22;53847;51.984;5.896;2022-08-18T10:23:04;24.90;63.40
66936;DHT22;53847;51.984;5.896;2022-08-18T10:25:42;24.90;63.40
66936;DHT22;53847;51.984;5.896;2022-08-18T10:28:46;25.30;63.50
66936;DHT22;53847;51.984;5.896;2022-08-18T10:31:04;25.30;63.40
66936;DHT22;53847;51.984;5.896;2022-08-18T10:34:00;25.00;63.50
66936;DHT22;53847;51.984;5.896;2022-08-18T10:44:47;25.60;63.70
66936;DHT22;53847;51.984;5.896;2022-08-18T10:47:28;25.40;63.90
66936;DHT22;53847;51.984;5.896;2022-08-18T10:49:55;25.60;63.60
66936;DHT22;53847;51.984;5.896;2022-08-18T10:58:08;25.90;62.80
66936;DHT22;53847;51.984;5.896;2022-08-18T11:03:37;25.70;62.50
66936;DHT22;53847;51.984;5.896;2022-08-18T11:06:07;25.80;62.30
66936;DHT22;53847;51.984;5.896;2022-08-18T11:08:40;25.40;61.80
66936;DHT22;53847;51.984;5.896;2022-08-18T11:11:09;25.50;62.00
66936;DHT22;53847;51.984;5.896;2022-08-18T11:13:54;25.30;61.80
66936;DHT22;53847;51.984;5.896;2022-08-18T11:19:12;25.50;62.40
66936;DHT22;53847;51.984;5.896;2022-08-18T11:21:48;25.40;62.30
66936;DHT22;53847;51.984;5.896;2022-08-18T11:24:20;25.20;62.20
66936;DHT22;53847;51.984;5.896;2022-08-18T11:27:00;25.20;62.50
66936;DHT22;53847;51.984;5.896;2022-08-18T11:29:37;25.20;62.60
66936;DHT22;53847;51.984;5.896;2022-08-18T11:35:00;25.40;63.10
66936;DHT22;53847;51.984;5.896;2022-08-18T11:37:35;24.70;62.90
66936;DHT22;53847;51.984;5.896;2022-08-18T11:40:05;24.90;63.40
66936;DHT22;53847;51.984;5.896;2022-08-18T11:42:34;24.60;63.50
66936;DHT22;53847;51.984;5.896;2022-08-18T11:45:15;24.90;63.90
66936;DHT22;53847;51.984;5.896;2022-08-18T11:48:15;24.80;64.00
66936;DHT22;53847;51.984;5.896;2022-08-18T11:50:59;25.00;64.10
66936;DHT22;53847;51.984;5.896;2022-08-18T11:58:49;25.10;63.80
66936;DHT22;53847;51.984;5.896;2022-08-18T12:06:40;25.10;63.00
66936;DHT22;53847;51.984;5.896;2022-08-18T12:11:58;25.10;63.10
66936;DHT22;53847;51.984;5.896;2022-08-18T12:14:28;25.10;63.20
66936;DHT22;53847;51.984;5.896;2022-08-18T12:16:54;25.40;63.40
66936;DHT22;53847;51.984;5.896;2022-08-18T12:19:22;25.30;63.20
66936;DHT22;53847;51.984;5.896;2022-08-18T12:21:54;25.40;63.10
66936;DHT22;53847;51.984;5.896;2022-08-18T12:24:24;25.40;62.70
66936;DHT22;53847;51.984;5.896;2022-08-18T12:26:53;25.10;62.50
66936;DHT22;53847;51.984;5.896;2022-08-18T12:29:19;25.70;62.80
66936;DHT22;53847;51.984;5.896;2022-08-18T12:31:48;25.40;62.60
66936;DHT22;53847;51.984;5.896;2022-08-18T12:34:23;25.50;62.70
66936;DHT22;53847;51.984;5.896;2022-08-18T12:36:50;25.60;62.70
66936;DHT22;53847;51.984;5.896;2022-08-18T12:39:20;25.40;62.60
66936;DHT22;53847;51.984;5.896;2022-08-18T12:41:46;25.80;62.60
66936;DHT22;53847;51.984;5.896;2022-08-18T12:44:13;25.80;61.90
66936;DHT22;53847;51.984;5.896;2022-08-18T12:46:40;25.30;61.40
66936;DHT22;53847;51.984;5.896;2022-08-18T12:49:16;25.50;61.50
66936;DHT22;53847;51.984;5.896;2022-08-18T12:51:43;25.70;61.40
66936;DHT22;53847;51.984;5.896;2022-08-18T12:54:09;25.80;61.40
66936;DHT22;53847;51.984;5.896;2022-08-18T12:56:36;25.50;61.20
66936;DHT22;53847;51.984;5.896;2022-08-18T12:59:05;25.90;61.60
66936;DHT22;53847;51.984;5.896;2022-08-18T13:01:32;25.60;61.50
66936;DHT22;53847;51.984;5.896;2022-08-18T13:03:59;25.90;61.70
66936;DHT22;53847;51.984;5.896;2022-08-18T13:06:29;25.00;61.10
66936;DHT22;53847;51.984;5.896;2022-08-18T13:08:56;25.70;61.70
66936;DHT22;53847;51.984;5.896;2022-08-18T13:11:22;25.60;62.10
66936;DHT22;53847;51.984;5.896;2022-08-18T13:13:50;25.90;61.90
66936;DHT22;53847;51.984;5.896;2022-08-18T13:16:17;25.60;61.70
66936;DHT22;53847;51.984;5.896;2022-08-18T13:18:43;25.50;61.80
66936;DHT22;53847;51.984;5.896;2022-08-18T13:21:11;25.20;61.70
66936;DHT22;53847;51.984;5.896;2022-08-18T13:23:38;25.40;61.80
66936;DHT22;53847;51.984;5.896;2022-08-18T13:26:06;25.60;62.00
66936;DHT22;53847;51.984;5.896;2022-08-18T13:28:34;25.80;62.10
66936;DHT22;53847;51.984;5.896;2022-08-18T13:31:18;25.40;61.90
66936;DHT22;53847;51.984;5.896;2022-08-18T13:33:44;25.50;62.00
66936;DHT22;53847;51.984;5.896;2022-08-18T13:36:16;25.40;62.10
66936;DHT22;53847;51.984;5.896;2022-08-18T13:38:44;25.10;61.90
66936;DHT22;53847;51.984;5.896;2022-08-18T13:41:11;25.50;62.30
66936;DHT22;53847;51.984;5.896;2022-08-18T13:43:41;25.40;62.30
66936;DHT22;53847;51.984;5.896;2022-08-18T13:46:10;25.80;62.70
66936;DHT22;53847;51.984;5.896;2022-08-18T13:48:37;25.50;62.60
66936;DHT22;53847;51.984;5.896;2022-08-18T13:51:08;25.30;63.40
66936;DHT22;53847;51.984;5.896;2022-08-18T13:53:37;25.60;63.00
66936;DHT22;53847;51.984;5.896;2022-08-18T13:56:04;25.30;62.70
66936;DHT22;53847;51.984;5.896;2022-08-18T13:58:31;25.70;62.90
66936;DHT22;53847;51.984;5.896;2022-08-18T14:00:59;25.20;62.40
66936;DHT22;53847;51.984;5.896;2022-08-18T14:03:26;25.50;62.60
66936;DHT22;53847;51.984;5.896;2022-08-18T14:05:52;25.60;62.60
66936;DHT22;53847;51.984;5.896;2022-08-18T14:08:18;25.50;62.50
66936;DHT22;53847;51.984;5.896;2022-08-18T14:10:47;25.60;62.50
66936;DHT22;53847;51.984;5.896;2022-08-18T14:13:14;25.70;62.60
66936;DHT22;53847;51.984;5.896;2022-08-18T14:15:40;25.70;62.70
66936;DHT22;53847;51.984;5.896;2022-08-18T14:18:06;25.80;62.50
66936;DHT22;53847;51.984;5.896;2022-08-18T14:20:34;26.00;62.50
66936;DHT22;53847;51.984;5.896;2022-08-18T14:23:01;26.20;62.80
66936;DHT22;53847;51.984;5.896;2022-08-18T14:25:27;26.00;62.50
66936;DHT22;53847;51.984;5.896;2022-08-18T14:27:53;26.20;62.70
66936;DHT22;53847;51.984;5.896;2022-08-18T14:30:20;26.40;62.40
66936;DHT22;53847;51.984;5.896;2022-08-18T14:32:46;26.50;62.20
66936;DHT22;53847;51.984;5.896;2022-08-18T14:35:13;26.60;61.90
66936;DHT22;53847;51.984;5.896;2022-08-18T14:37:40;26.80;61.00
66936;DHT22;53847;51.984;5.896;2022-08-18T14:40:07;26.70;60.70
66936;DHT22;53847;51.984;5.896;2022-08-18T14:42:33;26.90;59.90
66936;DHT22;53847;51.984;5.896;2022-08-18T14:44:59;26.80;59.60
66936;DHT22;53847;51.984;5.896;2022-08-18T14:47:25;27.00;59.50
66936;DHT22;53847;51.984;5.896;2022-08-18T14:49:53;27.00;59.00
66936;DHT22;53847;51.984;5.896;2022-08-18T14:52:19;27.00;58.80
66936;DHT22;53847;51.984;5.896;2022-08-18T14:54:45;26.40;58.30
66936;DHT22;53847;51.984;5.896;2022-08-18T14:57:11;26.90;58.70
66936;DHT22;53847;51.984;5.896;2022-08-18T14:59:37;26.80;58.50
66936;DHT22;53847;51.984;5.896;2022-08-18T15:02:06;26.70;58.50
66936;DHT22;53847;51.984;5.896;2022-08-18T15:04:35;26.70;58.50
66936;DHT22;53847;51.984;5.896;2022-08-18T15:07:02;26.70;58.60
66936;DHT22;53847;51.984;5.896;2022-08-18T15:09:28;26.60;58.50
66936;DHT22;53847;51.984;5.896;2022-08-18T15:11:58;26.60;58.60
66936;DHT22;53847;51.984;5.896;2022-08-18T15:14:26;26.60;58.20
66936;DHT22;53847;51.984;5.896;2022-08-18T15:16:53;26.60;58.30
66936;DHT22;53847;51.984;5.896;2022-08-18T15:19:19;26.70;58.30
66936;DHT22;53847;51.984;5.896;2022-08-18T15:21:45;26.80;58.30
66936;DHT22;53847;51.984;5.896;2022-08-18T15:24:11;27.10;58.20
66936;DHT22;53847;51.984;5.896;2022-08-18T15:26:37;26.80;57.90
66936;DHT22;53847;51.984;5.896;2022-08-18T15:29:04;26.60;57.90
66936;DHT22;53847;51.984;5.896;2022-08-18T15:31:30;26.30;57.90
66936;DHT22;53847;51.984;5.896;2022-08-18T15:33:57;26.90;58.50
66936;DHT22;53847;51.984;5.896;2022-08-18T15:36:23;26.40;58.20
66936;DHT22;53847;51.984;5.896;2022-08-18T15:38:50;26.50;58.50
66936;DHT22;53847;51.984;5.896;2022-08-18T15:41:34;26.60;58.70
66936;DHT22;53847;51.984;5.896;2022-08-18T15:44:01;26.60;58.90
66936;DHT22;53847;51.984;5.896;2022-08-18T15:46:31;26.30;58.80
66936;DHT22;53847;51.984;5.896;2022-08-18T15:48:57;26.30;59.10
66936;DHT22;53847;51.984;5.896;2022-08-18T15:51:23;26.00;59.00
66936;DHT22;53847;51.984;5.896;2022-08-18T15:53:49;26.40;60.00
66936;DHT22;53847;51.984;5.896;2022-08-18T15:56:22;26.40;59.20
66936;DHT22;53847;51.984;5.896;2022-08-18T15:58:49;26.40;59.00
66936;DHT22;53847;51.984;5.896;2022-08-18T16:01:16;26.70;59.10
66936;DHT22;53847;51.984;5.896;2022-08-18T16:03:43;26.40;59.00
66936;DHT22;53847;51.984;5.896;2022-08-18T16:06:15;26.30;59.00
66936;DHT22;53847;51.984;5.896;2022-08-18T16:08:41;26.20;58.90
66936;DHT22;53847;51.984;5.896;2022-08-18T16:11:10;26.30;59.10
66936;DHT22;53847;51.984;5.896;2022-08-18T16:13:36;26.40;59.20
66936;DHT22;53847;51.984;5.896;2022-08-18T16:16:14;26.40;59.30
66936;DHT22;53847;51.984;5.896;2022-08-18T16:18:41;26.40;59.30
66936;DHT22;53847;51.984;5.896;2022-08-18T16:21:09;26.40;59.30
66936;DHT22;53847;51.984;5.896;2022-08-18T16:23:42;26.50;59.40
66936;DHT22;53847;51.984;5.896;2022-08-18T16:26:10;26.50;59.50
66936;DHT22;53847;51.984;5.896;2022-08-18T16:28:36;26.50;59.50
66936;DHT22;53847;51.984;5.896;2022-08-18T16:31:02;26.40;59.40
66936;DHT22;53847;51.984;5.896;2022-08-18T16:33:29;26.60;59.50
66936;DHT22;53847;51.984;5.896;2022-08-18T16:35:55;26.60;59.40
66936;DHT22;53847;51.984;5.896;2022-08-18T16:38:21;26.70;59.40
66936;DHT22;53847;51.984;5.896;2022-08-18T16:40:47;26.40;59.20
66936;DHT22;53847;51.984;5.896;2022-08-18T16:43:13;26.20;59.00
66936;DHT22;53847;51.984;5.896;2022-08-18T16:45:40;26.60;59.40
66936;DHT22;53847;51.984;5.896;2022-08-18T16:48:09;26.60;59.60
66936;DHT22;53847;51.984;5.896;2022-08-18T16:50:37;26.30;59.60
66936;DHT22;53847;51.984;5.896;2022-08-18T16:53:03;26.30;59.60
66936;DHT22;53847;51.984;5.896;2022-08-18T16:55:30;26.50;60.00
66936;DHT22;53847;51.984;5.896;2022-08-18T16:57:58;26.20;59.70
66936;DHT22;53847;51.984;5.896;2022-08-18T17:00:25;26.20;59.90
66936;DHT22;53847;51.984;5.896;2022-08-18T17:02:51;26.20;60.00
66936;DHT22;53847;51.984;5.896;2022-08-18T17:05:17;25.90;60.50
66936;DHT22;53847;51.984;5.896;2022-08-18T17:07:43;26.10;60.00
66936;DHT22;53847;51.984;5.896;2022-08-18T17:10:10;26.10;60.00
66936;DHT22;53847;51.984;5.896;2022-08-18T17:12:36;26.00;60.10
66936;DHT22;53847;51.984;5.896;2022-08-18T17:15:02;25.70;60.00
66936;DHT22;53847;51.984;5.896;2022-08-18T17:17:28;25.90;60.20
66936;DHT22;53847;51.984;5.896;2022-08-18T17:19:54;25.80;60.20
66936;DHT22;53847;51.984;5.896;2022-08-18T17:22:20;25.60;60.10
66936;DHT22;53847;51.984;5.896;2022-08-18T17:24:47;25.70;60.20
66936;DHT22;53847;51.984;5.896;2022-08-18T17:27:20;25.80;60.20
66936;DHT22;53847;51.984;5.896;2022-08-18T17:29:58;25.80;60.30
66936;DHT22;53847;51.984;5.896;2022-08-18T17:32:54;25.80;61.00
66936;DHT22;53847;51.984;5.896;2022-08-18T17:35:29;25.70;60.60
66936;DHT22;53847;51.984;5.896;2022-08-18T17:40:47;25.70;60.70
66936;DHT22;53847;51.984;5.896;2022-08-18T17:43:17;25.30;60.40
66936;DHT22;53847;51.984;5.896;2022-08-18T17:45:48;25.40;60.50
66936;DHT22;53847;51.984;5.896;2022-08-18T17:48:21;25.90;60.90
66936;DHT22;53847;51.984;5.896;2022-08-18T17:51:00;25.60;60.90
66936;DHT22;53847;51.984;5.896;2022-08-18T17:53:27;25.50;60.90
66936;DHT22;53847;51.984;5.896;2022-08-18T17:56:04;25.20;60.80
66936;DHT22;53847;51.984;5.896;2022-08-18T17:58:50;25.20;61.00
66936;DHT22;53847;51.984;5.896;2022-08-18T18:01:18;25.40;61.40
66936;DHT22;53847;51.984;5.896;2022-08-18T18:03:44;25.60;61.90